seedheritage.com alexa rank chart, seedheritage.com alexa rank daily changes

seedheritage.com alexa rank chart, seedheritage.com alexa rank daily changes

seedheritage.com
Actual rank:
162 688

RANK HISTORY

Date Rank Diff
2016/12/09 162 688 -5 649
2016/12/08 168 337 -54
2016/12/07 168 391 -6 086
2016/12/06 174 477 -4 270
2016/12/05 178 747 -2 505
2016/12/04 181 252 +2 484
2016/12/02 178 768 +981
2016/12/01 177 787 -6 806
2016/11/30 184 593 -1 037
2016/11/29 185 630 -1 071
2016/11/28 186 701 -2 647
2016/11/27 189 348 -5 437
2016/11/26 194 785 +714
2016/11/25 194 071 -8 570
2016/11/24 202 641 -604
2016/11/23 203 245 -6 431
2016/11/19 209 676 +7 351
2016/11/18 202 325 -2 338
2016/11/17 204 663 -3 851
2016/11/16 208 514 -4 352
2016/11/15 212 866 -1 003
2016/11/14 213 869 -9 587
2016/11/13 223 456 +969
2016/11/12 222 487 -4 909
2016/11/11 227 396 -858
2016/11/10 228 254 +8 501
2016/11/09 219 753 +5 838
2016/11/08 213 915 -1 563
2016/11/07 215 478 -2 040
2016/11/06 217 518 +6 465
2016/11/05 211 053 -7 509
2016/11/04 218 562 -4 573
2016/11/03 223 135 -3 521
2016/11/02 226 656 +514
2016/11/01 226 142 +1 111
2016/10/31 225 031 -3 791
2016/10/30 228 822 +269
2016/10/29 228 553 -5 460
2016/10/28 234 013 -1 890
2016/10/27 235 903 +5 971
2016/10/26 229 932 -3 909
2016/10/25 233 841 -2 827
2016/10/24 236 668 -4 153
2016/10/23 240 821 +3 010
2016/10/22 237 811 -8 216
2016/10/21 246 027 +5 574
2016/10/20 240 453 +3 604
2016/10/19 236 849 -566
2016/10/18 237 415 +1 411
2016/10/17 236 004 +6 401
2016/10/16 229 603 +8 475
2016/10/15 221 128 +38 133
2016/10/14 182 995 +9 885
2016/10/13 173 110 +4 295
2016/10/12 168 815 +1 020
2016/10/11 167 795 -1 674
2016/10/10 169 469

WIDGET FOR YOUR SITE

DOMAINS WITH THE NEAREST RANK

Domain Rank
love-real.ru 162 683
concept-phones.com 162 684
kinomaniak.pl 162 685
livinggreenandfrugally.com 162 686
broadmail.de 162 687
seedheritage.com 162 688
dienstencheques-vlaanderen.be 162 689
loopup.com 162 690
ncc.cn 162 691
sonokinetic.net 162 692
tucapital.es 162 693

DOMAINS WITH THE NEAREST RANK BY TLD .com

Domain Rank
diandian.com 162 675
mobyetrafmsmt.com 162 676
vanishingincmagic.com 162 680
concept-phones.com 162 684
livinggreenandfrugally.com 162 686
seedheritage.com 162 688
loopup.com 162 690
escortsxp.com 162 695
gpbeta.com 162 696
uerhhgezdrdi.com 162 698
dervor.com 162 699